createdAt,value
2018-05-03T00:00:12.942Z,85.28
2018-05-03T00:01:36.339Z,85.18
2018-05-03T00:03:07.508Z,85.01
2018-05-03T00:04:30.849Z,85.21
2018-05-03T00:06:02.231Z,85.21
2018-05-03T00:07:25.621Z,85.35
2018-05-03T00:08:57.017Z,85.73
2018-05-03T00:10:20.264Z,85.67
2018-05-03T00:11:47.521Z,85.74
2018-05-03T00:13:14.431Z,85.74
2018-05-03T00:14:45.802Z,85.48
2018-05-03T00:16:09.104Z,84.88
2018-05-03T00:17:36.499Z,85.06
2018-05-03T00:19:03.809Z,84.97
2018-05-03T00:20:31.094Z,84.78
2018-05-03T00:22:02.475Z,85.17
2018-05-03T00:23:25.688Z,85.40
2018-05-03T00:24:52.966Z,85.43
2018-05-03T00:26:24.253Z,85.86
2018-05-03T00:27:47.557Z,86.01
2018-05-03T00:29:14.873Z,85.82
2018-05-03T00:30:42.228Z,85.87
2018-05-03T00:32:09.671Z,85.72
2018-05-03T00:33:36.932Z,85.35
2018-05-03T00:35:08.295Z,85.46
2018-05-03T00:36:35.643Z,85.26
2018-05-03T00:38:02.949Z,85.58
2018-05-03T00:39:26.247Z,84.99
2018-05-03T00:40:53.661Z,84.89
2018-05-03T00:42:20.942Z,85.09
2018-05-03T00:43:52.196Z,85.38
2018-05-03T00:45:19.462Z,85.55
2018-05-03T00:46:42.735Z,85.57
2018-05-03T00:48:14.123Z,85.43
2018-05-03T00:49:41.312Z,85.77
2018-05-03T00:51:04.738Z,85.76
2018-05-03T00:52:35.987Z,85.61
2018-05-03T00:53:59.240Z,85.34
2018-05-03T00:55:26.573Z,85.62
2018-05-03T00:56:53.813Z,85.51
2018-05-03T00:58:25.265Z,85.63
2018-05-03T00:59:48.466Z,85.65
2018-05-03T01:01:19.770Z,85.72
2018-05-03T01:02:47.219Z,86.07
2018-05-03T01:04:14.243Z,85.30
2018-05-03T01:05:37.657Z,85.09
2018-05-03T01:07:05.072Z,85.29
2018-05-03T01:08:32.417Z,85.67
2018-05-03T01:09:59.799Z,85.93
2018-05-03T01:11:31.236Z,86.69
2018-05-03T01:12:54.440Z,86.63
2018-05-03T01:14:25.764Z,86.59
2018-05-03T01:15:53.012Z,86.94
2018-05-03T01:17:16.338Z,87.18
2018-05-03T01:18:47.591Z,87.33
2018-05-03T01:20:11.015Z,87.87
2018-05-03T01:21:38.348Z,87.69
2018-05-03T01:23:05.587Z,87.79
2018-05-03T01:24:32.903Z,87.97
2018-05-03T01:26:00.263Z,88.01
2018-05-03T01:27:27.649Z,88.19
2018-05-03T01:28:55.012Z,88.19
2018-05-03T01:30:22.310Z,88.21
2018-05-03T01:31:49.582Z,88.41
2018-05-03T01:33:16.847Z,88.51
2018-05-03T01:34:44.241Z,88.35
2018-05-03T01:36:15.259Z,88.40
2018-05-03T01:37:42.516Z,88.24
2018-05-03T01:39:09.836Z,88.42
2018-05-03T01:40:37.250Z,88.68
2018-05-03T01:42:04.483Z,88.19
2018-05-03T01:43:27.791Z,88.40
2018-05-03T01:44:59.159Z,88.46
2018-05-03T01:46:26.611Z,88.40
2018-05-03T01:47:49.852Z,88.30
2018-05-03T01:49:21.142Z,88.52
2018-05-03T01:50:48.261Z,88.30
2018-05-03T01:52:15.566Z,88.17
2018-05-03T01:53:38.845Z,87.96
2018-05-03T01:55:06.262Z,88.16
2018-05-03T01:56:37.459Z,88.00
2018-05-03T01:58:00.783Z,87.41
2018-05-03T01:59:27.980Z,87.78
2018-05-03T02:00:55.145Z,87.86
2018-05-03T02:02:26.411Z,87.72
2018-05-03T02:03:49.696Z,87.54
2018-05-03T02:05:20.915Z,87.49
2018-05-03T02:06:43.896Z,87.12
2018-05-03T02:08:11.322Z,86.99
2018-05-03T02:09:38.566Z,86.81
2018-05-03T02:11:09.860Z,86.60
2018-05-03T02:12:32.963Z,86.42
2018-05-03T02:14:00.379Z,86.49
2018-05-03T02:15:27.702Z,86.45
2018-05-03T02:16:54.893Z,86.82
2018-05-03T02:18:26.317Z,86.83
2018-05-03T02:19:49.703Z,86.71
2018-05-03T02:21:21.158Z,86.76
2018-05-03T02:22:43.999Z,86.85
2018-05-03T02:24:11.215Z,86.56
2018-05-03T02:25:42.609Z,86.69
2018-05-03T02:27:10.114Z,86.69
2018-05-03T02:28:37.128Z,86.46
2018-05-03T02:30:00.424Z,86.56
2018-05-03T02:31:31.766Z,86.38
2018-05-03T02:32:59.023Z,86.38
2018-05-03T02:34:22.377Z,86.47
2018-05-03T02:35:53.710Z,86.10
2018-05-03T02:37:16.895Z,85.92
2018-05-03T02:38:47.905Z,85.92
2018-05-03T02:40:11.205Z,85.81
2018-05-03T02:41:38.594Z,85.97
2018-05-03T02:43:05.942Z,86.16
2018-05-03T02:44:37.225Z,85.89
2018-05-03T02:46:04.474Z,85.82
2018-05-03T02:47:27.844Z,85.26
2018-05-03T02:48:55.210Z,84.88
2018-05-03T02:50:26.539Z,85.39
2018-05-03T02:51:49.758Z,85.33
2018-05-03T02:53:20.858Z,85.37
2018-05-03T02:54:43.886Z,84.93
2018-05-03T02:56:11.306Z,84.67
2018-05-03T02:57:38.517Z,84.64
2018-05-03T02:59:05.964Z,84.36
2018-05-03T03:00:37.259Z,84.15
2018-05-03T03:02:04.544Z,84.18
2018-05-03T03:03:31.627Z,84.47
2018-05-03T03:04:54.890Z,84.31
2018-05-03T03:06:22.359Z,84.20
2018-05-03T03:07:49.522Z,83.88
2018-05-03T03:09:16.739Z,84.19
2018-05-03T03:10:44.166Z,84.31
2018-05-03T03:12:15.536Z,83.98
2018-05-03T03:13:38.846Z,84.30
2018-05-03T03:15:10.048Z,84.91
2018-05-03T03:16:33.419Z,84.64
2018-05-03T03:18:00.827Z,84.95
2018-05-03T03:19:28.164Z,85.69
2018-05-03T03:20:59.377Z,85.98
2018-05-03T03:22:22.663Z,87.11
2018-05-03T03:23:49.960Z,87.85
2018-05-03T03:25:21.291Z,87.60
2018-05-03T03:26:44.410Z,87.25
2018-05-03T03:28:11.757Z,87.41
2018-05-03T03:29:39.040Z,87.69
2018-05-03T03:31:06.349Z,87.50
2018-05-03T03:32:37.655Z,87.71
2018-05-03T03:34:00.838Z,88.04
2018-05-03T03:35:32.142Z,88.09
2018-05-03T03:36:59.409Z,88.00
2018-05-03T03:38:22.800Z,87.82
2018-05-03T03:39:54.038Z,88.01
2018-05-03T03:41:21.305Z,88.05
2018-05-03T03:42:44.477Z,88.04
2018-05-03T03:44:11.723Z,88.02
2018-05-03T03:45:43.091Z,88.08
2018-05-03T03:47:06.450Z,87.64
2018-05-03T03:48:33.840Z,87.34
2018-05-03T03:50:01.104Z,87.22
2018-05-03T03:51:28.330Z,87.07
2018-05-03T03:52:55.773Z,87.50
2018-05-03T03:54:23.106Z,87.17
2018-05-03T03:55:50.434Z,86.72
2018-05-03T03:57:17.728Z,86.41
2018-05-03T03:58:48.915Z,86.37
2018-05-03T04:00:12.148Z,86.51
2018-05-03T04:01:39.497Z,86.85
2018-05-03T04:03:06.794Z,87.01
2018-05-03T04:04:34.156Z,86.65
2018-05-03T04:06:01.496Z,86.49
2018-05-03T04:07:28.926Z,86.63
2018-05-03T04:08:56.316Z,86.48
2018-05-03T04:10:23.621Z,86.97
2018-05-03T04:11:50.835Z,86.81
2018-05-03T04:13:22.072Z,86.84
2018-05-03T04:14:45.216Z,87.52
2018-05-03T04:16:16.536Z,87.54
2018-05-03T04:17:40.005Z,87.75
2018-05-03T04:19:07.147Z,87.46
2018-05-03T04:20:34.368Z,87.44
2018-05-03T04:22:01.583Z,87.39
2018-05-03T04:23:28.916Z,87.41
2018-05-03T04:24:56.062Z,87.14
2018-05-03T04:26:23.508Z,86.72
2018-05-03T04:27:54.841Z,86.76
2018-05-03T04:29:18.219Z,86.75
2018-05-03T04:30:45.365Z,86.27
2018-05-03T04:32:16.632Z,85.67
2018-05-03T04:33:44.066Z,85.59
2018-05-03T04:35:07.575Z,85.74
2018-05-03T04:36:38.927Z,85.69
2018-05-03T04:38:06.339Z,85.20
2018-05-03T04:39:29.635Z,85.03
2018-05-03T04:40:56.881Z,85.40
2018-05-03T04:42:28.192Z,85.39
2018-05-03T04:43:55.618Z,85.57
2018-05-03T04:45:22.854Z,85.61
2018-05-03T04:46:46.174Z,85.86
2018-05-03T04:48:13.641Z,86.57
2018-05-03T04:49:40.937Z,86.26
2018-05-03T04:51:08.318Z,86.26
2018-05-03T04:52:39.566Z,86.28
2018-05-03T04:54:02.817Z,86.13
2018-05-03T04:55:34.134Z,86.22
2018-05-03T04:57:01.396Z,85.95
2018-05-03T04:58:24.682Z,85.82
2018-05-03T04:59:56.140Z,85.62
2018-05-03T05:01:23.314Z,85.35
2018-05-03T05:02:50.508Z,85.03
2018-05-03T05:04:13.838Z,84.36
2018-05-03T05:05:45.075Z,83.66
2018-05-03T05:07:08.609Z,83.69
2018-05-03T05:08:39.983Z,83.10
2018-05-03T05:10:07.254Z,82.46
2018-05-03T05:11:34.463Z,82.45
2018-05-03T05:13:01.718Z,82.09
2018-05-03T05:14:25.135Z,81.96
2018-05-03T05:15:52.526Z,82.02
2018-05-03T05:17:19.759Z,81.28
2018-05-03T05:18:51.012Z,80.85
2018-05-03T05:20:19.059Z,80.35
2018-05-03T05:21:41.308Z,79.79
2018-05-03T05:23:08.817Z,79.57
2018-05-03T05:24:41.190Z,79.33
2018-05-03T05:26:03.353Z,79.05
2018-05-03T05:27:30.513Z,79.11
2018-05-03T05:29:01.872Z,78.82
2018-05-03T05:30:29.206Z,78.55
2018-05-03T05:31:52.442Z,78.28
2018-05-03T05:33:23.695Z,78.45
2018-05-03T05:34:51.025Z,78.05
2018-05-03T05:36:18.276Z,78.42
2018-05-03T05:37:41.647Z,77.47
2018-05-03T05:39:09.152Z,77.68
2018-05-03T05:40:40.575Z,77.41
2018-05-03T05:42:04.092Z,77.66
2018-05-03T05:43:35.340Z,76.87
2018-05-03T05:45:02.640Z,76.57
2018-05-03T05:46:25.941Z,76.32
2018-05-03T05:47:53.214Z,75.79
2018-05-03T05:49:24.743Z,76.23
2018-05-03T05:50:52.059Z,75.21
2018-05-03T05:52:15.063Z,74.47
2018-05-03T05:53:42.444Z,73.69
2018-05-03T05:55:13.641Z,72.67
2018-05-03T05:56:41.146Z,72.54
2018-05-03T05:58:04.467Z,72.67
2018-05-03T05:59:31.720Z,71.62
2018-05-03T06:00:59.215Z,70.82
2018-05-03T06:02:26.576Z,70.34
2018-05-03T06:03:53.709Z,70.29
2018-05-03T06:05:25.268Z,71.11
2018-05-03T06:06:48.662Z,70.47
2018-05-03T06:08:15.965Z,70.74
2018-05-03T06:09:43.252Z,71.24
2018-05-03T06:11:10.745Z,70.34
2018-05-03T06:12:42.086Z,70.51
2018-05-03T06:14:09.526Z,71.18
2018-05-03T06:15:32.754Z,71.27
2018-05-03T06:17:04.353Z,71.92
2018-05-03T06:18:31.524Z,72.08
2018-05-03T06:19:54.833Z,72.02
2018-05-03T06:21:26.160Z,72.25
2018-05-03T06:22:53.494Z,72.14
2018-05-03T06:24:20.789Z,71.43
2018-05-03T06:25:43.851Z,71.08
2018-05-03T06:27:11.186Z,71.55
2018-05-03T06:28:42.517Z,70.52
2018-05-03T06:30:05.972Z,72.02
2018-05-03T06:31:37.146Z,71.53
2018-05-03T06:33:04.755Z,71.05
2018-05-03T06:34:32.152Z,71.14
2018-05-03T06:35:59.607Z,71.52
2018-05-03T06:37:26.880Z,71.71
2018-05-03T06:38:50.149Z,71.72
2018-05-03T06:40:21.690Z,72.14
2018-05-03T06:41:44.797Z,72.71
2018-05-03T06:43:12.096Z,71.70
2018-05-03T06:44:39.471Z,71.01
2018-05-03T06:46:10.857Z,70.52
2018-05-03T06:47:34.245Z,71.85
2018-05-03T06:49:01.656Z,72.06
2018-05-03T06:50:33.044Z,72.05
2018-05-03T06:52:00.586Z,71.27
2018-05-03T06:53:27.910Z,70.28
2018-05-03T06:54:55.231Z,70.58
2018-05-03T06:56:18.415Z,70.87
2018-05-03T06:57:45.467Z,70.72
2018-05-03T06:59:12.858Z,71.16
2018-05-03T07:00:40.291Z,70.49
2018-05-03T07:02:07.687Z,71.57
2018-05-03T07:03:35.110Z,71.38
2018-05-03T07:05:02.419Z,71.13
2018-05-03T07:06:29.983Z,70.41
2018-05-03T07:07:57.367Z,70.06
2018-05-03T07:09:24.858Z,71.33
2018-05-03T07:10:56.206Z,69.95
2018-05-03T07:12:19.440Z,69.35
2018-05-03T07:13:46.759Z,68.59
2018-05-03T07:15:14.061Z,69.60
2018-05-03T07:16:41.461Z,69.25
2018-05-03T07:18:12.691Z,69.13
2018-05-03T07:19:36.052Z,69.25
2018-05-03T07:21:03.560Z,68.58
2018-05-03T07:22:35.039Z,69.60
2018-05-03T07:23:58.250Z,69.12
2018-05-03T07:25:25.679Z,69.58
2018-05-03T07:26:52.953Z,68.51
2018-05-03T07:28:20.314Z,68.37
2018-05-03T07:29:47.672Z,68.88
2018-05-03T07:31:14.932Z,69.17
2018-05-03T07:32:42.492Z,68.96
2018-05-03T07:34:09.716Z,69.37
2018-05-03T07:35:37.060Z,69.17
2018-05-03T07:37:08.652Z,69.36
2018-05-03T07:38:36.055Z,69.08
2018-05-03T07:40:03.510Z,69.06
2018-05-03T07:41:26.846Z,69.38
2018-05-03T07:42:58.321Z,68.70
2018-05-03T07:44:21.701Z,69.96
2018-05-03T07:45:53.016Z,70.82
2018-05-03T07:47:20.246Z,69.86
2018-05-03T07:48:43.745Z,69.97
2018-05-03T07:50:11.231Z,70.12
2018-05-03T07:51:38.611Z,68.36
2018-05-03T07:53:10.173Z,70.19
2018-05-03T07:54:33.459Z,69.30
2018-05-03T07:56:04.877Z,68.86
2018-05-03T07:57:28.312Z,68.63
2018-05-03T07:58:55.667Z,69.72
2018-05-03T08:00:23.240Z,69.36
2018-05-03T08:01:50.571Z,68.37
2018-05-03T08:03:17.987Z,68.25
2018-05-03T08:04:45.525Z,67.62
2018-05-03T08:06:16.695Z,66.52
2018-05-03T08:07:40.150Z,66.80
2018-05-03T08:09:07.614Z,66.82
2018-05-03T08:10:35.079Z,66.29
2018-05-03T08:12:02.476Z,67.09
2018-05-03T08:13:33.967Z,67.25
2018-05-03T08:14:57.399Z,66.90
2018-05-03T08:16:28.763Z,67.07
2018-05-03T08:17:52.245Z,68.08
2018-05-03T08:19:23.723Z,67.93
2018-05-03T08:20:50.774Z,67.27
2018-05-03T08:22:14.468Z,66.75
2018-05-03T08:23:46.011Z,67.67
2018-05-03T08:25:09.411Z,66.83
2018-05-03T08:26:40.821Z,67.04
2018-05-03T08:28:04.220Z,67.17
2018-05-03T08:29:31.456Z,67.17
2018-05-03T08:31:02.407Z,66.38
2018-05-03T08:32:29.818Z,67.34
2018-05-03T08:33:57.285Z,67.16
2018-05-03T08:35:20.520Z,66.68
2018-05-03T08:36:48.029Z,66.84
2018-05-03T08:38:19.233Z,66.78
2018-05-03T08:39:46.740Z,67.58
2018-05-03T08:41:10.150Z,68.07
2018-05-03T08:42:37.630Z,69.17
2018-05-03T08:44:08.767Z,69.88
2018-05-03T08:45:36.034Z,69.22
2018-05-03T08:46:59.381Z,68.38
2018-05-03T08:48:30.705Z,69.54
2018-05-03T08:49:54.067Z,70.30
2018-05-03T08:51:25.552Z,70.32
2018-05-03T08:52:53.000Z,69.09
2018-05-03T08:54:16.366Z,69.69
2018-05-03T08:55:48.154Z,69.03
2018-05-03T08:57:11.723Z,69.55
2018-05-03T08:58:39.069Z,68.69
2018-05-03T09:00:05.921Z,69.21
2018-05-03T09:01:33.531Z,69.13
2018-05-03T09:04:32.244Z,68.33
2018-05-03T09:05:55.410Z,68.08
2018-05-03T09:07:22.709Z,68.73
2018-05-03T09:08:54.255Z,68.35
2018-05-03T09:10:17.413Z,67.43
2018-05-03T09:11:44.740Z,67.95
2018-05-03T09:13:15.625Z,69.18
2018-05-03T09:14:42.957Z,69.17
2018-05-03T09:16:06.578Z,68.68
2018-05-03T09:17:33.968Z,67.54
2018-05-03T09:19:01.283Z,67.94
2018-05-03T09:20:32.407Z,67.22
2018-05-03T09:21:55.789Z,66.59
2018-05-03T09:23:23.332Z,66.38
2018-05-03T09:24:50.497Z,68.01
2018-05-03T09:26:17.760Z,67.54
2018-05-03T09:27:45.011Z,66.77
2018-05-03T09:29:16.052Z,67.23
2018-05-03T09:30:39.227Z,65.90
2018-05-03T09:32:10.421Z,65.65
2018-05-03T09:33:33.623Z,66.64
2018-05-03T09:35:05.256Z,67.84
2018-05-03T09:36:28.363Z,68.46
2018-05-03T09:37:55.845Z,68.40
2018-05-03T09:39:27.140Z,67.26
2018-05-03T09:40:50.614Z,66.62
2018-05-03T09:42:17.710Z,66.50
2018-05-03T09:43:49.046Z,66.90
2018-05-03T09:45:16.232Z,62.60
2018-05-03T09:46:43.074Z,57.37
2018-05-03T09:48:10.377Z,55.63
2018-05-03T09:49:37.679Z,55.38
2018-05-03T09:51:01.044Z,55.43
2018-05-03T09:52:28.552Z,52.97
2018-05-03T09:54:00.127Z,50.08
2018-05-03T09:55:23.529Z,49.71
2018-05-03T09:56:50.614Z,51.11
2018-05-03T09:58:18.111Z,52.14
2018-05-03T09:59:45.405Z,53.59
2018-05-03T10:01:12.735Z,52.69
2018-05-03T10:02:40.032Z,53.56
2018-05-03T10:04:11.457Z,53.12
2018-05-03T10:05:34.840Z,52.35
2018-05-03T10:07:06.342Z,52.96
2018-05-03T10:08:33.731Z,52.51
2018-05-03T10:10:01.015Z,52.75
2018-05-03T10:11:24.084Z,50.95
2018-05-03T10:12:51.519Z,49.61
2018-05-03T10:14:18.751Z,49.81
2018-05-03T10:15:50.247Z,49.37
2018-05-03T10:17:13.530Z,50.10
2018-05-03T10:18:40.959Z,48.66
2018-05-03T10:20:08.371Z,50.36
2018-05-03T10:21:39.934Z,50.87
2018-05-03T10:23:03.310Z,49.93
2018-05-03T10:24:34.704Z,51.51
2018-05-03T10:25:57.944Z,51.33
2018-05-03T10:27:29.423Z,51.50
2018-05-03T10:28:56.745Z,49.89
2018-05-03T10:30:23.823Z,51.60
2018-05-03T10:31:51.206Z,51.79
2018-05-03T10:33:14.318Z,50.84
2018-05-03T10:34:41.712Z,51.46
2018-05-03T10:36:13.158Z,50.70
2018-05-03T10:37:40.160Z,52.14
2018-05-03T10:39:07.644Z,51.80
2018-05-03T10:40:35.047Z,50.64
2018-05-03T10:41:58.482Z,50.88
2018-05-03T10:43:25.854Z,50.50
2018-05-03T10:44:53.465Z,50.67
2018-05-03T10:46:20.748Z,47.62
2018-05-03T10:47:52.004Z,49.83
2018-05-03T10:49:15.226Z,50.31
2018-05-03T10:50:50.185Z,49.53
2018-05-03T10:52:09.589Z,48.64
2018-05-03T10:53:37.112Z,47.41
2018-05-03T10:55:08.520Z,46.33
2018-05-03T10:56:32.022Z,46.69
2018-05-03T10:58:03.337Z,47.70
2018-05-03T10:59:26.847Z,47.70
2018-05-03T11:00:54.250Z,47.30
2018-05-03T11:02:25.536Z,47.21
2018-05-03T11:03:48.329Z,47.19
2018-05-03T11:05:19.770Z,46.80
2018-05-03T11:06:43.225Z,48.00
2018-05-03T11:08:10.686Z,47.92
2018-05-03T11:09:38.039Z,48.03
2018-05-03T11:11:09.622Z,48.32
2018-05-03T11:12:36.759Z,45.13
2018-05-03T11:14:00.177Z,46.40
2018-05-03T11:15:27.598Z,44.52
2018-05-03T11:16:55.064Z,45.57
2018-05-03T11:18:26.591Z,46.02
2018-05-03T11:19:49.947Z,45.90
2018-05-03T11:21:21.280Z,46.64
2018-05-03T11:22:48.654Z,45.03
2018-05-03T11:24:12.111Z,43.66
2018-05-03T11:25:39.605Z,43.11
2018-05-03T11:27:07.126Z,41.61
2018-05-03T11:28:38.499Z,41.21
2018-05-03T11:30:06.001Z,42.46
2018-05-03T11:31:33.598Z,42.10
2018-05-03T11:33:01.095Z,41.50
2018-05-03T11:34:24.356Z,40.24
2018-05-03T11:35:51.829Z,40.94
2018-05-03T11:37:19.403Z,39.54
2018-05-03T11:38:50.725Z,40.89
2018-05-03T11:40:14.157Z,40.00
2018-05-03T11:41:41.510Z,39.97
2018-05-03T11:43:12.898Z,40.24
2018-05-03T11:44:36.390Z,41.49
2018-05-03T11:46:03.784Z,42.28
2018-05-03T11:47:31.289Z,40.90
2018-05-03T11:48:58.750Z,40.14
2018-05-03T11:50:26.333Z,40.49
2018-05-03T11:51:53.673Z,41.78
2018-05-03T11:53:24.968Z,39.99
2018-05-03T11:54:48.602Z,40.42
2018-05-03T11:56:16.100Z,41.09
2018-05-03T11:57:47.507Z,39.55
2018-05-03T11:59:14.953Z,38.74
2018-05-03T12:00:38.293Z,39.38
2018-05-03T12:02:05.740Z,41.13
2018-05-03T12:03:33.320Z,40.05
2018-05-03T12:05:00.740Z,38.26
2018-05-03T12:06:28.328Z,37.80
2018-05-03T12:07:55.860Z,38.82
2018-05-03T12:09:23.250Z,37.92
2018-05-03T12:10:50.825Z,38.63
2018-05-03T12:12:18.117Z,37.05
2018-05-03T12:13:49.436Z,35.93
2018-05-03T12:15:12.807Z,37.92
2018-05-03T12:16:40.162Z,35.73
2018-05-03T12:18:07.343Z,37.31
2018-05-03T12:19:38.729Z,36.80
2018-05-03T12:21:02.007Z,36.19
2018-05-03T12:22:33.273Z,36.90
2018-05-03T12:23:56.688Z,35.70
2018-05-03T12:25:27.622Z,37.41
2018-05-03T12:26:51.084Z,37.91
2018-05-03T12:28:22.448Z,35.63
2018-05-03T12:29:45.830Z,33.84
2018-05-03T12:31:17.335Z,35.48
2018-05-03T12:32:44.970Z,37.03
2018-05-03T12:34:08.325Z,36.59
2018-05-03T12:35:39.880Z,36.15
2018-05-03T12:37:03.326Z,36.89
2018-05-03T12:38:30.634Z,36.46
2018-05-03T12:40:01.927Z,36.34
2018-05-03T12:41:25.656Z,35.77
2018-05-03T12:42:52.976Z,37.53
2018-05-03T12:44:20.416Z,35.56
2018-05-03T12:45:47.842Z,38.75
2018-05-03T12:47:19.037Z,36.40
2018-05-03T12:48:42.531Z,36.76
2018-05-03T12:50:09.977Z,39.30
2018-05-03T12:51:41.548Z,37.48
2018-05-03T12:53:04.894Z,36.44
2018-05-03T12:54:36.429Z,37.13
2018-05-03T12:55:59.863Z,38.50
2018-05-03T12:57:27.246Z,37.16
2018-05-03T12:58:58.780Z,37.67
2018-05-03T13:00:22.211Z,39.28
2018-05-03T13:01:49.552Z,37.98
2018-05-03T13:03:20.906Z,37.45
2018-05-03T13:04:48.665Z,37.04
2018-05-03T13:06:12.042Z,37.87
2018-05-03T13:07:39.484Z,36.26
2018-05-03T13:09:11.000Z,37.39
2018-05-03T13:10:34.504Z,37.57
2018-05-03T13:12:05.925Z,38.12
2018-05-03T13:13:29.391Z,37.05
2018-05-03T13:14:56.940Z,39.50
2018-05-03T13:16:28.312Z,38.59
2018-05-03T13:17:51.949Z,37.88
2018-05-03T13:19:19.065Z,39.55
2018-05-03T13:20:46.492Z,38.95
2018-05-03T13:22:13.993Z,39.02
2018-05-03T13:23:41.102Z,38.52
2018-05-03T13:25:08.577Z,40.94
2018-05-03T13:26:35.823Z,40.83
2018-05-03T13:28:07.089Z,40.40
2018-05-03T13:29:34.402Z,40.17
2018-05-03T13:31:01.713Z,41.69
2018-05-03T13:32:25.156Z,43.06
2018-05-03T13:33:56.491Z,42.14
2018-05-03T13:35:19.815Z,43.85
2018-05-03T13:36:46.881Z,43.27
2018-05-03T13:38:14.291Z,43.54
2018-05-03T13:39:41.668Z,43.05
2018-05-03T13:41:09.138Z,43.07
2018-05-03T13:42:36.536Z,44.00
2018-05-03T13:44:04.080Z,44.78
2018-05-03T13:45:31.054Z,46.38
2018-05-03T13:46:58.564Z,45.10
2018-05-03T13:48:25.759Z,43.87
2018-05-03T13:49:58.003Z,44.43
2018-05-03T13:51:19.991Z,44.48
2018-05-03T13:52:51.310Z,44.42
2018-05-03T13:54:18.702Z,43.14
2018-05-03T13:55:46.070Z,43.18
2018-05-03T13:57:09.623Z,44.25
2018-05-03T13:58:37.049Z,44.16
2018-05-03T14:00:04.547Z,44.60
2018-05-03T14:01:31.724Z,45.63
2018-05-03T14:02:59.236Z,45.46
2018-05-03T14:04:26.547Z,45.95
2018-05-03T14:05:53.874Z,47.92
2018-05-03T14:07:21.322Z,46.03
2018-05-03T14:08:52.564Z,46.72
2018-05-03T14:10:15.756Z,47.27
2018-05-03T14:11:47.239Z,47.97
2018-05-03T14:13:10.507Z,47.65
2018-05-03T14:14:42.001Z,47.79
2018-05-03T14:16:05.491Z,49.02
2018-05-03T14:17:37.067Z,48.29
2018-05-03T14:19:00.152Z,48.84
2018-05-03T14:20:31.609Z,48.92
2018-05-03T14:21:54.569Z,47.30
2018-05-03T14:23:21.564Z,45.98
2018-05-03T14:24:53.020Z,46.16
2018-05-03T14:26:16.370Z,45.27
2018-05-03T14:27:47.340Z,46.54
2018-05-03T14:29:10.650Z,44.95
2018-05-03T14:30:42.179Z,45.49
2018-05-03T14:32:09.534Z,46.93
2018-05-03T14:33:32.782Z,44.70
2018-05-03T14:35:04.191Z,43.91
2018-05-03T14:36:27.520Z,45.19
2018-05-03T14:37:58.779Z,44.57
2018-05-03T14:39:26.407Z,45.02
2018-05-03T14:40:53.642Z,44.67
2018-05-03T14:42:16.937Z,46.19
2018-05-03T14:43:48.624Z,44.89
2018-05-03T14:45:12.005Z,46.24
2018-05-03T14:46:39.376Z,46.05
2018-05-03T14:48:06.697Z,45.22
2018-05-03T14:49:34.095Z,45.15
2018-05-03T14:51:05.307Z,45.44
2018-05-03T14:52:32.974Z,44.79
2018-05-03T14:53:56.315Z,45.56
2018-05-03T14:55:27.691Z,45.56
2018-05-03T14:56:51.078Z,46.70
2018-05-03T14:58:22.598Z,47.17
2018-05-03T14:59:45.922Z,46.40
2018-05-03T15:01:17.411Z,44.33
2018-05-03T15:02:40.788Z,44.33
2018-05-03T15:04:08.178Z,44.83
2018-05-03T15:05:35.527Z,44.97
2018-05-03T15:07:06.671Z,45.18
2018-05-03T15:08:30.197Z,46.93
2018-05-03T15:10:01.542Z,47.15
2018-05-03T15:11:24.900Z,47.38
2018-05-03T15:12:52.266Z,47.87
2018-05-03T15:14:19.583Z,48.84
2018-05-03T15:15:51.013Z,48.59
2018-05-03T15:17:14.473Z,48.34
2018-05-03T15:18:41.764Z,48.18
2018-05-03T15:20:09.218Z,49.53
2018-05-03T15:21:36.618Z,51.10
2018-05-03T15:23:04.124Z,50.44
2018-05-03T15:24:35.312Z,51.22
2018-05-03T15:25:58.584Z,51.62
2018-05-03T15:27:25.818Z,51.36
2018-05-03T15:28:53.190Z,51.79
2018-05-03T15:30:20.488Z,51.27
2018-05-03T15:31:51.719Z,51.27
2018-05-03T15:33:14.935Z,51.72
2018-05-03T15:34:42.419Z,52.10
2018-05-03T15:36:13.606Z,52.69
2018-05-03T15:37:36.980Z,51.99
2018-05-03T15:39:08.560Z,53.05
2018-05-03T15:40:31.731Z,52.83
2018-05-03T15:42:02.968Z,53.23
2018-05-03T15:43:30.620Z,52.96
2018-05-03T15:44:53.901Z,52.18
2018-05-03T15:46:21.133Z,51.60
2018-05-03T15:47:52.426Z,52.10
2018-05-03T15:49:15.851Z,50.84
2018-05-03T15:50:43.236Z,51.48
2018-05-03T15:52:10.785Z,52.61
2018-05-03T15:53:38.167Z,52.27
2018-05-03T15:55:05.662Z,51.78
2018-05-03T15:56:37.293Z,51.97
2018-05-03T15:58:00.771Z,52.88
2018-05-03T15:59:28.279Z,53.04
2018-05-03T16:00:55.442Z,53.25
2018-05-03T16:02:22.955Z,52.65
2018-05-03T16:03:54.200Z,54.18
2018-05-03T16:05:17.333Z,54.40
2018-05-03T16:06:44.342Z,54.34
2018-05-03T16:08:11.787Z,53.87
2018-05-03T16:09:39.181Z,53.02
2018-05-03T16:11:10.522Z,53.01
2018-05-03T16:12:39.094Z,53.40
2018-05-03T16:14:01.474Z,53.71
2018-05-03T16:15:28.867Z,52.96
2018-05-03T16:16:56.173Z,53.85
2018-05-03T16:18:27.576Z,53.19
2018-05-03T16:19:50.928Z,54.00
2018-05-03T16:21:18.291Z,54.55
2018-05-03T16:22:45.550Z,54.55
2018-05-03T16:24:13.020Z,55.53
2018-05-03T16:25:40.466Z,55.60
2018-05-03T16:27:07.879Z,55.20
2018-05-03T16:28:35.063Z,56.24
2018-05-03T16:30:02.561Z,55.47
2018-05-03T16:31:33.848Z,55.91
2018-05-03T16:32:57.315Z,56.86
2018-05-03T16:34:24.708Z,55.98
2018-05-03T16:35:52.053Z,56.96
2018-05-03T16:37:23.715Z,55.31
2018-05-03T16:38:46.870Z,56.77
2018-05-03T16:40:14.235Z,56.73
2018-05-03T16:41:41.322Z,56.88
2018-05-03T16:43:12.563Z,57.41
2018-05-03T16:44:39.886Z,57.86
2018-05-03T16:46:07.304Z,57.78
2018-05-03T16:47:30.533Z,59.25
2018-05-03T16:49:02.131Z,58.80
2018-05-03T16:50:25.372Z,58.40
2018-05-03T16:51:56.717Z,58.25
2018-05-03T16:53:23.911Z,58.73
2018-05-03T16:54:47.156Z,59.34
2018-05-03T16:56:14.391Z,58.79
2018-05-03T16:57:41.835Z,59.55
2018-05-03T16:59:13.115Z,58.37
2018-05-03T17:00:40.445Z,59.53
2018-05-03T17:02:07.839Z,59.44
2018-05-03T17:03:35.208Z,59.66
2018-05-03T17:05:02.515Z,59.79
2018-05-03T17:06:25.863Z,58.99
2018-05-03T17:07:53.222Z,59.13
2018-05-03T17:09:20.693Z,58.15
2018-05-03T17:10:51.853Z,58.98
2018-05-03T17:12:15.250Z,59.08
2018-05-03T17:13:42.516Z,57.85
2018-05-03T17:15:10.045Z,59.20
2018-05-03T17:16:37.134Z,59.44
2018-05-03T17:18:04.582Z,57.14
2018-05-03T17:19:31.904Z,58.38
2018-05-03T17:20:59.366Z,58.82
2018-05-03T17:22:30.727Z,58.40
2018-05-03T17:23:54.059Z,57.68
2018-05-03T17:25:21.320Z,58.51
2018-05-03T17:26:52.712Z,58.99
2018-05-03T17:28:15.816Z,58.22
2018-05-03T17:29:47.289Z,58.61
2018-05-03T17:31:10.595Z,58.80
2018-05-03T17:32:38.077Z,58.27
2018-05-03T17:34:09.369Z,58.16
2018-05-03T17:35:36.396Z,58.83
2018-05-03T17:37:04.079Z,59.13
2018-05-03T17:38:31.466Z,59.01
2018-05-03T17:39:54.741Z,59.31
2018-05-03T17:41:25.968Z,59.97
2018-05-03T17:42:49.306Z,60.60
2018-05-03T17:44:20.784Z,59.74
2018-05-03T17:45:48.167Z,59.81
2018-05-03T17:47:11.445Z,59.66
2018-05-03T17:48:38.715Z,60.43
2018-05-03T17:50:06.164Z,60.52
2018-05-03T17:51:33.622Z,60.94
2018-05-03T17:53:05.115Z,60.51
2018-05-03T17:54:32.372Z,60.87
2018-05-03T17:55:59.846Z,61.32
2018-05-03T17:57:22.993Z,60.87
2018-05-03T17:58:54.414Z,61.91
2018-05-03T18:00:17.677Z,61.10
2018-05-03T18:01:44.935Z,60.27
2018-05-03T18:03:12.577Z,61.51
2018-05-03T18:04:43.483Z,61.70
2018-05-03T18:06:06.676Z,60.98
2018-05-03T18:07:34.090Z,61.80
2018-05-03T18:09:01.375Z,61.68
2018-05-03T18:10:32.762Z,62.04
2018-05-03T18:11:55.993Z,60.93
2018-05-03T18:13:23.528Z,60.07
2018-05-03T18:14:50.879Z,61.02
2018-05-03T18:16:18.313Z,61.52
2018-05-03T18:17:45.640Z,61.10
2018-05-03T18:19:17.141Z,61.24
2018-05-03T18:20:44.399Z,60.06
2018-05-03T18:22:07.785Z,59.76
2018-05-03T18:23:35.320Z,60.04
2018-05-03T18:25:02.739Z,60.41
2018-05-03T18:26:33.923Z,61.11
2018-05-03T18:28:01.132Z,60.21
2018-05-03T18:29:24.491Z,60.77
2018-05-03T18:30:51.940Z,60.51
2018-05-03T18:32:19.142Z,60.07
2018-05-03T18:33:46.467Z,60.95
2018-05-03T18:35:17.586Z,61.70
2018-05-03T18:36:44.923Z,61.34
2018-05-03T18:38:08.287Z,61.42
2018-05-03T18:39:39.895Z,62.28
2018-05-03T18:41:03.110Z,62.01
2018-05-03T18:42:34.296Z,62.56
2018-05-03T18:44:01.590Z,61.96
2018-05-03T18:45:24.874Z,62.02